createdAt,value
2022-10-11T00:02:10.125Z,8.07
2022-10-11T00:05:53.920Z,9.38
2022-10-11T00:09:35.871Z,5.28
2022-10-11T00:13:17.701Z,5.93
2022-10-11T00:16:59.593Z,6.97
2022-10-11T00:20:41.407Z,8.98
2022-10-11T00:24:23.268Z,7.35
2022-10-11T00:28:05.622Z,6.45
2022-10-11T00:31:47.454Z,5.20
2022-10-11T00:35:29.266Z,7.72
2022-10-11T00:39:13.747Z,6.53
2022-10-11T00:42:56.188Z,7.38
2022-10-11T00:46:38.951Z,9.23
2022-10-11T00:50:22.812Z,8.35
2022-10-11T00:54:06.322Z,7.00
2022-10-11T00:57:49.815Z,9.00
2022-10-11T01:01:31.878Z,8.90
2022-10-11T01:05:32.236Z,9.77
2022-10-11T01:09:14.461Z,5.20
2022-10-11T01:13:15.130Z,9.02
2022-10-11T01:17:15.023Z,7.65
2022-10-11T01:21:46.000Z,7.20
2022-10-11T01:25:46.680Z,5.63
2022-10-11T01:29:57.379Z,7.18
2022-10-11T01:33:44.819Z,9.68
2022-10-11T01:37:32.942Z,7.00
2022-10-11T01:41:24.751Z,6.25
2022-10-11T01:45:11.044Z,6.72
2022-10-11T01:48:55.991Z,4.60
2022-10-11T01:52:43.950Z,8.43
2022-10-11T01:56:47.672Z,7.03
2022-10-11T02:00:48.961Z,8.65
2022-10-11T02:04:41.231Z,6.00
2022-10-11T02:08:33.506Z,7.50
2022-10-11T02:12:26.144Z,6.05
2022-10-11T02:16:12.857Z,6.07
2022-10-11T02:19:58.246Z,6.82
2022-10-11T02:23:48.586Z,6.40
2022-10-11T02:27:34.272Z,9.40
2022-10-11T02:31:19.195Z,7.25
2022-10-11T02:35:02.613Z,11.20
2022-10-11T02:38:49.907Z,7.20
2022-10-11T02:42:37.362Z,5.45
2022-10-11T02:46:19.275Z,6.70
2022-10-11T02:50:01.267Z,6.00
2022-10-11T02:53:43.075Z,6.63
2022-10-11T02:57:25.019Z,8.57
2022-10-11T03:01:06.835Z,4.25
2022-10-11T03:04:48.675Z,7.22
2022-10-11T03:08:30.599Z,5.57
2022-10-11T03:12:12.492Z,6.40
2022-10-11T03:16:02.836Z,5.60
2022-10-11T03:19:45.570Z,7.38
2022-10-11T03:23:27.514Z,7.95
2022-10-11T03:27:09.347Z,9.93
2022-10-11T03:30:51.938Z,10.85
2022-10-11T03:34:33.765Z,9.48
2022-10-11T03:38:19.306Z,13.32
2022-10-11T03:42:01.121Z,7.55
2022-10-11T03:45:43.003Z,6.50
2022-10-11T03:49:24.935Z,11.48
2022-10-11T03:53:07.619Z,7.45
2022-10-11T03:56:49.453Z,8.80
2022-10-11T04:00:31.272Z,8.52
2022-10-11T04:04:13.097Z,7.38
2022-10-11T04:07:54.913Z,6.63
2022-10-11T04:11:36.722Z,7.35
2022-10-11T04:15:18.719Z,8.07
2022-10-11T04:19:00.572Z,7.03
2022-10-11T04:22:42.412Z,7.25
2022-10-11T04:26:24.920Z,7.85
2022-10-11T04:30:07.463Z,9.95
2022-10-11T04:33:49.388Z,10.77
2022-10-11T04:37:31.212Z,5.75
2022-10-11T04:41:14.297Z,6.60
2022-10-11T04:44:56.227Z,6.30
2022-10-11T04:48:38.078Z,9.80
2022-10-11T04:52:24.698Z,9.18
2022-10-11T04:56:11.299Z,10.90
2022-10-11T04:59:53.123Z,8.55
2022-10-11T05:03:35.254Z,5.75
2022-10-11T05:07:17.292Z,6.78
2022-10-11T05:11:01.430Z,5.07
2022-10-11T05:14:43.330Z,8.80
2022-10-11T05:18:25.357Z,7.18
2022-10-11T05:22:07.227Z,8.35
2022-10-11T05:25:49.742Z,9.95
2022-10-11T05:29:31.551Z,7.28
2022-10-11T05:33:13.403Z,12.27
2022-10-11T05:36:56.763Z,7.88
2022-10-11T05:40:39.210Z,6.15
2022-10-11T05:44:21.073Z,7.28
2022-10-11T05:48:03.032Z,6.20
2022-10-11T05:51:44.939Z,7.32
2022-10-11T05:55:26.917Z,7.03
2022-10-11T05:59:08.726Z,6.82
2022-10-11T06:02:50.590Z,7.53
2022-10-11T06:06:32.420Z,11.18
2022-10-11T06:10:14.341Z,7.45
2022-10-11T06:14:00.507Z,9.40
2022-10-11T06:17:42.338Z,8.25
2022-10-11T06:21:24.985Z,7.95
2022-10-11T06:25:07.492Z,8.57
2022-10-11T06:28:49.464Z,9.70
2022-10-11T06:32:31.936Z,10.05
2022-10-11T06:36:16.705Z,10.85
2022-10-11T06:39:58.607Z,7.18
2022-10-11T06:43:40.464Z,4.97
2022-10-11T06:47:22.253Z,6.80
2022-10-11T06:51:04.182Z,5.25
2022-10-11T06:54:45.992Z,7.13
2022-10-11T06:58:28.730Z,6.30
2022-10-11T07:02:10.784Z,9.27
2022-10-11T07:05:52.616Z,6.50
2022-10-11T07:09:35.172Z,9.25
2022-10-11T07:13:17.422Z,7.38
2022-10-11T07:16:59.394Z,8.52
2022-10-11T07:20:41.221Z,7.07
2022-10-11T07:24:23.078Z,8.40
2022-10-11T07:28:05.560Z,6.97
2022-10-11T07:31:47.497Z,7.68
2022-10-11T07:35:29.259Z,9.20
2022-10-11T07:39:11.083Z,18.70
2022-10-11T07:42:52.898Z,7.45
2022-10-11T07:46:34.748Z,8.88
2022-10-11T07:50:16.736Z,8.73
2022-10-11T07:54:01.300Z,10.65
2022-10-11T07:57:45.430Z,11.77
2022-10-11T08:01:28.539Z,7.60
2022-10-11T08:05:10.454Z,6.75
2022-10-11T08:08:52.374Z,5.22
2022-10-11T08:12:34.582Z,6.03
2022-10-11T08:16:16.574Z,9.30
2022-10-11T08:19:58.410Z,8.13
2022-10-11T08:23:40.584Z,5.65
2022-10-11T08:27:22.491Z,7.60
2022-10-11T08:31:04.577Z,7.88
2022-10-11T08:34:46.411Z,10.98
2022-10-11T08:38:28.216Z,7.72
2022-10-11T08:42:43.231Z,9.15
2022-10-11T08:46:30.823Z,10.20
2022-10-11T08:50:19.891Z,10.02
2022-10-11T08:54:16.784Z,7.20
2022-10-11T08:57:59.439Z,10.68
2022-10-11T09:01:47.518Z,11.65
2022-10-11T09:05:34.950Z,11.75
2022-10-11T09:09:29.419Z,10.90
2022-10-11T09:13:19.426Z,18.13
2022-10-11T09:17:04.681Z,10.18
2022-10-11T09:20:56.211Z,16.75
2022-10-11T09:24:56.811Z,11.55
2022-10-11T09:28:38.669Z,14.57
2022-10-11T09:32:21.544Z,12.60
2022-10-11T09:36:41.983Z,11.45
2022-10-11T09:41:01.993Z,19.23
2022-10-11T09:44:51.224Z,11.70
2022-10-11T09:48:41.305Z,14.52
2022-10-11T09:52:24.892Z,8.55
2022-10-11T09:56:07.124Z,12.57
2022-10-11T10:00:06.011Z,8.88
2022-10-11T10:04:03.260Z,8.43
2022-10-11T10:08:24.291Z,10.32
2022-10-11T10:12:13.809Z,11.52
2022-10-11T10:16:00.874Z,10.57
2022-10-11T10:19:49.735Z,7.63
2022-10-11T10:23:36.867Z,8.98
2022-10-11T10:27:22.753Z,5.45
2022-10-11T10:31:04.662Z,7.82
2022-10-11T10:34:49.476Z,8.90
2022-10-11T10:39:01.754Z,12.15
2022-10-11T10:42:43.622Z,6.45
2022-10-11T10:46:59.179Z,10.00
2022-10-11T10:50:55.855Z,6.40
2022-10-11T10:54:52.533Z,9.18
2022-10-11T10:59:01.520Z,8.65
2022-10-11T11:03:00.705Z,8.90
2022-10-11T11:06:59.443Z,9.23
2022-10-11T11:10:48.887Z,8.02
2022-10-11T11:15:09.076Z,6.28
2022-10-11T11:19:02.368Z,8.20
2022-10-11T11:23:36.481Z,5.32
2022-10-11T11:27:39.927Z,6.20
2022-10-11T11:31:21.702Z,6.40
2022-10-11T11:35:31.563Z,6.68
2022-10-11T11:39:18.930Z,8.88
2022-10-11T11:43:57.103Z,7.68
2022-10-11T11:47:43.310Z,8.02
2022-10-11T11:51:34.065Z,6.68
2022-10-11T11:55:23.904Z,6.20
2022-10-11T11:59:32.091Z,5.15
2022-10-11T12:03:19.640Z,5.30
2022-10-11T12:07:16.405Z,6.63
2022-10-11T12:11:03.785Z,4.80
2022-10-11T12:15:02.997Z,9.00
2022-10-11T12:18:54.312Z,9.57
2022-10-11T12:22:40.195Z,7.25
2022-10-11T12:26:28.261Z,5.15
2022-10-11T12:30:44.002Z,6.15
2022-10-11T12:38:34.099Z,6.57
2022-10-11T12:42:27.958Z,6.25
2022-10-11T12:46:28.211Z,4.55
2022-10-11T12:50:22.811Z,5.45
2022-10-11T12:54:27.574Z,3.78
2022-10-11T12:58:38.784Z,6.25
2022-10-11T13:02:28.680Z,6.22
2022-10-11T13:06:26.934Z,4.97
2022-10-11T13:10:13.079Z,5.60
2022-10-11T13:13:59.059Z,5.18
2022-10-11T13:17:41.889Z,5.18
2022-10-11T13:21:28.927Z,4.88
2022-10-11T13:25:17.092Z,7.70
2022-10-11T13:29:00.835Z,6.22
2022-10-11T13:32:43.311Z,6.53
2022-10-11T13:36:26.960Z,5.72
2022-10-11T13:40:17.577Z,5.35
2022-10-11T13:44:00.574Z,7.03
2022-10-11T13:47:43.198Z,6.30
2022-10-11T13:51:37.542Z,5.22
2022-10-11T13:55:23.685Z,6.25
2022-10-11T13:59:05.700Z,5.60
2022-10-11T14:02:50.227Z,2.70
2022-10-11T14:06:47.110Z,5.70
2022-10-11T14:10:29.665Z,7.22
2022-10-11T14:14:31.160Z,4.85
2022-10-11T14:18:31.599Z,8.63
2022-10-11T14:22:18.570Z,3.22
2022-10-11T14:26:00.391Z,7.35
2022-10-11T14:29:55.572Z,7.05
2022-10-11T14:33:46.935Z,7.63
2022-10-11T14:37:28.751Z,4.97
2022-10-11T14:41:10.540Z,7.00
2022-10-11T14:44:52.369Z,4.70
2022-10-11T14:48:54.497Z,5.18
2022-10-11T14:52:36.055Z,7.07
2022-10-11T14:56:21.527Z,6.47
2022-10-11T15:00:16.181Z,5.28
2022-10-11T15:03:58.031Z,7.93
2022-10-11T15:07:39.935Z,8.25
2022-10-11T15:11:23.271Z,6.85
2022-10-11T15:15:05.318Z,6.85
2022-10-11T15:18:50.931Z,4.13
2022-10-11T15:22:33.780Z,7.97
2022-10-11T15:26:19.010Z,8.38
2022-10-11T15:30:01.167Z,7.32
2022-10-11T15:33:43.162Z,7.30
2022-10-11T15:37:25.014Z,7.90
2022-10-11T15:41:08.440Z,4.05
2022-10-11T15:44:50.306Z,4.93
2022-10-11T15:48:33.109Z,6.10
2022-10-11T15:52:14.912Z,4.13
2022-10-11T15:55:59.601Z,5.20
2022-10-11T15:59:41.372Z,4.72
2022-10-11T16:03:25.977Z,4.30
2022-10-11T16:07:07.811Z,8.70
2022-10-11T16:10:50.259Z,4.68
2022-10-11T16:14:32.093Z,8.55
2022-10-11T16:18:16.362Z,7.40
2022-10-11T16:21:58.155Z,7.18
2022-10-11T16:25:41.128Z,7.60
2022-10-11T16:29:24.251Z,6.72
2022-10-11T16:33:06.043Z,5.32
2022-10-11T16:36:47.846Z,7.70
2022-10-11T16:40:30.187Z,5.25
2022-10-11T16:44:14.080Z,5.78
2022-10-11T16:47:55.959Z,7.03
2022-10-11T16:51:37.794Z,8.35
2022-10-11T16:55:19.607Z,7.53
2022-10-11T16:59:01.760Z,8.43
2022-10-11T17:02:43.643Z,7.63
2022-10-11T17:06:25.485Z,5.68
2022-10-11T17:10:07.932Z,7.25
2022-10-11T17:13:51.573Z,11.40
2022-10-11T17:17:33.465Z,8.13
2022-10-11T17:21:17.504Z,7.82
2022-10-11T17:25:01.531Z,8.63
2022-10-11T17:28:43.647Z,9.38
2022-10-11T17:32:25.543Z,5.13
2022-10-11T17:36:30.619Z,9.98
2022-10-11T17:40:12.446Z,11.93
2022-10-11T17:43:55.443Z,8.93
2022-10-11T17:47:37.262Z,6.32
2022-10-11T17:51:19.674Z,12.27
2022-10-11T17:55:01.542Z,12.60
2022-10-11T17:58:43.875Z,11.50
2022-10-11T18:02:25.768Z,8.23
2022-10-11T18:06:10.266Z,7.13
2022-10-11T18:09:52.090Z,17.40
2022-10-11T18:13:33.988Z,19.73
2022-10-11T18:17:15.831Z,13.90
2022-10-11T18:20:57.867Z,13.95
2022-10-11T18:24:41.439Z,11.68
2022-10-11T18:28:23.376Z,11.32
2022-10-11T18:32:05.406Z,9.80
2022-10-11T18:35:47.223Z,13.75
2022-10-11T18:39:29.103Z,11.68
2022-10-11T18:43:10.917Z,10.43
2022-10-11T18:46:54.049Z,8.73
2022-10-11T18:50:36.003Z,8.48
2022-10-11T18:54:21.055Z,10.68
2022-10-11T18:58:03.409Z,12.98
2022-10-11T19:01:45.795Z,9.80
2022-10-11T19:05:27.762Z,7.78
2022-10-11T19:09:12.834Z,13.52
2022-10-11T19:12:54.662Z,26.83
2022-10-11T19:16:38.139Z,18.92
2022-10-11T19:20:19.936Z,21.88
2022-10-11T19:24:01.747Z,16.05
2022-10-11T19:27:43.575Z,12.93
2022-10-11T19:31:25.781Z,16.85
2022-10-11T19:35:08.309Z,18.08
2022-10-11T19:38:52.108Z,13.32
2022-10-11T19:42:34.402Z,12.65
2022-10-11T19:46:44.516Z,16.85
2022-10-11T19:50:22.931Z,12.98
2022-10-11T19:54:10.977Z,11.38
2022-10-11T19:57:52.772Z,9.73
2022-10-11T20:01:36.068Z,12.20
2022-10-11T20:05:18.002Z,13.82
2022-10-11T20:09:27.329Z,12.00
2022-10-11T20:13:02.044Z,8.45
2022-10-11T20:16:43.818Z,8.27
2022-10-11T20:20:25.749Z,11.43
2022-10-11T20:24:08.609Z,12.68
2022-10-11T20:27:50.447Z,10.88
2022-10-11T20:31:34.154Z,14.63
2022-10-11T20:35:16.055Z,19.25
2022-10-11T20:38:59.453Z,13.40
2022-10-11T20:42:41.260Z,15.43
2022-10-11T20:46:26.305Z,13.13
2022-10-11T20:50:08.496Z,14.52
2022-10-11T20:53:50.708Z,13.82
2022-10-11T20:57:32.765Z,15.90
2022-10-11T21:01:19.832Z,17.30
2022-10-11T21:05:01.715Z,15.32
2022-10-11T21:08:43.516Z,11.75
2022-10-11T21:12:25.351Z,19.15
2022-10-11T21:16:11.286Z,17.27
2022-10-11T21:19:53.088Z,18.23
2022-10-11T21:23:35.150Z,16.65
2022-10-11T21:27:16.931Z,19.15
2022-10-11T21:31:05.922Z,14.23
2022-10-11T21:34:47.731Z,13.68
2022-10-11T21:38:29.593Z,16.17
2022-10-11T21:42:11.407Z,14.68
2022-10-11T21:45:53.230Z,17.27
2022-10-11T21:49:35.696Z,20.92
2022-10-11T21:53:17.554Z,17.90
2022-10-11T21:56:59.499Z,15.02
2022-10-11T22:00:41.316Z,17.67
2022-10-11T22:04:23.391Z,19.70
2022-10-11T22:08:05.247Z,12.52
2022-10-11T22:11:47.053Z,13.05
2022-10-11T22:15:28.859Z,16.63
2022-10-11T22:19:10.946Z,11.13
2022-10-11T22:22:52.739Z,17.60
2022-10-11T22:26:35.531Z,13.25
2022-10-11T22:30:17.406Z,11.70
2022-10-11T22:34:00.537Z,15.00
2022-10-11T22:37:42.795Z,16.05
2022-10-11T22:41:24.900Z,14.30
2022-10-11T22:45:10.264Z,13.95
2022-10-11T22:48:52.077Z,14.68
2022-10-11T22:52:33.893Z,12.00
2022-10-11T22:56:15.779Z,13.57
2022-10-11T22:59:57.595Z,13.60
2022-10-11T23:03:40.037Z,12.80
2022-10-11T23:07:21.938Z,11.48
2022-10-11T23:11:07.417Z,14.05
2022-10-11T23:14:49.216Z,14.20
2022-10-11T23:18:31.091Z,16.67
2022-10-11T23:22:12.988Z,14.20
2022-10-11T23:26:20.976Z,13.85
2022-10-11T23:30:03.236Z,16.73
2022-10-11T23:33:45.642Z,12.23
2022-10-11T23:37:27.539Z,12.57
2022-10-11T23:41:09.543Z,14.73
2022-10-11T23:44:52.963Z,14.57
2022-10-11T23:48:34.798Z,13.15
2022-10-11T23:52:16.572Z,13.73
2022-10-11T23:55:58.471Z,14.57
2022-10-11T23:59:40.332Z,13.32
